sensor_id;sensor_type;location;lat;lon;timestamp;P1;durP1;ratioP1;P2;durP2;ratioP2
41059;SDS011;26811;53.160;8.202;2023-09-08T00:02:48;9.00;;;6.25;;
41059;SDS011;26811;53.160;8.202;2023-09-08T00:07:48;11.82;;;6.32;;
41059;SDS011;26811;53.160;8.202;2023-09-08T00:12:49;8.13;;;6.13;;
41059;SDS011;26811;53.160;8.202;2023-09-08T00:17:56;9.20;;;6.35;;
41059;SDS011;26811;53.160;8.202;2023-09-08T00:23:02;7.15;;;5.82;;
41059;SDS011;26811;53.160;8.202;2023-09-08T00:28:04;15.50;;;6.40;;
41059;SDS011;26811;53.160;8.202;2023-09-08T00:33:04;11.30;;;6.50;;
41059;SDS011;26811;53.160;8.202;2023-09-08T00:38:08;9.48;;;6.35;;
41059;SDS011;26811;53.160;8.202;2023-09-08T00:43:09;11.45;;;6.60;;
41059;SDS011;26811;53.160;8.202;2023-09-08T00:48:09;8.05;;;6.15;;
41059;SDS011;26811;53.160;8.202;2023-09-08T00:53:10;11.30;;;6.22;;
41059;SDS011;26811;53.160;8.202;2023-09-08T00:58:12;10.48;;;6.40;;
41059;SDS011;26811;53.160;8.202;2023-09-08T01:03:12;11.35;;;7.00;;
41059;SDS011;26811;53.160;8.202;2023-09-08T01:08:13;8.93;;;6.85;;
41059;SDS011;26811;53.160;8.202;2023-09-08T01:13:14;7.70;;;6.78;;
41059;SDS011;26811;53.160;8.202;2023-09-08T01:18:14;13.02;;;7.20;;
41059;SDS011;26811;53.160;8.202;2023-09-08T01:23:21;7.65;;;6.60;;
41059;SDS011;26811;53.160;8.202;2023-09-08T01:39:22;9.85;;;6.70;;
41059;SDS011;26811;53.160;8.202;2023-09-08T01:44:23;8.75;;;7.13;;
41059;SDS011;26811;53.160;8.202;2023-09-08T01:49:24;9.32;;;7.00;;
41059;SDS011;26811;53.160;8.202;2023-09-08T01:54:24;8.80;;;6.82;;
41059;SDS011;26811;53.160;8.202;2023-09-08T01:59:25;9.63;;;6.75;;
41059;SDS011;26811;53.160;8.202;2023-09-08T02:04:25;10.50;;;6.93;;
41059;SDS011;26811;53.160;8.202;2023-09-08T02:09:30;10.85;;;6.88;;
41059;SDS011;26811;53.160;8.202;2023-09-08T02:14:34;10.50;;;7.18;;
41059;SDS011;26811;53.160;8.202;2023-09-08T02:19:35;11.27;;;7.20;;
41059;SDS011;26811;53.160;8.202;2023-09-08T02:24:35;9.32;;;6.90;;
41059;SDS011;26811;53.160;8.202;2023-09-08T02:29:36;10.93;;;7.20;;
41059;SDS011;26811;53.160;8.202;2023-09-08T02:34:36;10.25;;;7.70;;
41059;SDS011;26811;53.160;8.202;2023-09-08T02:39:37;7.85;;;6.95;;
41059;SDS011;26811;53.160;8.202;2023-09-08T02:44:37;11.43;;;7.63;;
41059;SDS011;26811;53.160;8.202;2023-09-08T02:49:38;8.68;;;7.60;;
41059;SDS011;26811;53.160;8.202;2023-09-08T02:54:38;11.27;;;7.60;;
41059;SDS011;26811;53.160;8.202;2023-09-08T02:59:39;10.98;;;7.95;;
41059;SDS011;26811;53.160;8.202;2023-09-08T03:04:40;8.82;;;7.90;;
41059;SDS011;26811;53.160;8.202;2023-09-08T03:09:40;11.95;;;8.10;;
41059;SDS011;26811;53.160;8.202;2023-09-08T03:14:41;9.52;;;8.07;;
41059;SDS011;26811;53.160;8.202;2023-09-08T03:19:44;10.30;;;7.80;;
41059;SDS011;26811;53.160;8.202;2023-09-08T03:24:45;14.15;;;8.23;;
41059;SDS011;26811;53.160;8.202;2023-09-08T03:29:46;12.00;;;8.45;;
41059;SDS011;26811;53.160;8.202;2023-09-08T03:34:46;10.35;;;8.30;;
41059;SDS011;26811;53.160;8.202;2023-09-08T03:39:47;14.85;;;8.70;;
41059;SDS011;26811;53.160;8.202;2023-09-08T03:44:47;13.30;;;8.45;;
41059;SDS011;26811;53.160;8.202;2023-09-08T03:49:48;12.23;;;8.50;;
41059;SDS011;26811;53.160;8.202;2023-09-08T03:54:48;10.10;;;8.93;;
41059;SDS011;26811;53.160;8.202;2023-09-08T03:59:49;11.88;;;7.93;;
41059;SDS011;26811;53.160;8.202;2023-09-08T04:04:49;18.25;;;8.85;;
41059;SDS011;26811;53.160;8.202;2023-09-08T04:09:50;15.90;;;9.30;;
41059;SDS011;26811;53.160;8.202;2023-09-08T04:14:50;10.75;;;9.13;;
41059;SDS011;26811;53.160;8.202;2023-09-08T04:19:51;12.00;;;8.30;;
41059;SDS011;26811;53.160;8.202;2023-09-08T04:24:51;10.88;;;8.70;;
41059;SDS011;26811;53.160;8.202;2023-09-08T04:29:54;12.70;;;8.70;;
41059;SDS011;26811;53.160;8.202;2023-09-08T04:34:54;14.32;;;9.88;;
41059;SDS011;26811;53.160;8.202;2023-09-08T04:39:55;15.88;;;9.85;;
41059;SDS011;26811;53.160;8.202;2023-09-08T04:44:55;18.20;;;9.65;;
41059;SDS011;26811;53.160;8.202;2023-09-08T04:49:56;17.27;;;9.73;;
41059;SDS011;26811;53.160;8.202;2023-09-08T04:54:57;13.30;;;9.32;;
41059;SDS011;26811;53.160;8.202;2023-09-08T04:59:57;15.68;;;9.95;;
41059;SDS011;26811;53.160;8.202;2023-09-08T05:04:57;19.33;;;9.38;;
41059;SDS011;26811;53.160;8.202;2023-09-08T05:10:00;15.15;;;10.15;;
41059;SDS011;26811;53.160;8.202;2023-09-08T05:15:00;18.13;;;10.30;;
41059;SDS011;26811;53.160;8.202;2023-09-08T05:20:06;17.02;;;9.88;;
41059;SDS011;26811;53.160;8.202;2023-09-08T05:25:07;17.98;;;10.15;;
41059;SDS011;26811;53.160;8.202;2023-09-08T05:30:08;17.42;;;11.00;;
41059;SDS011;26811;53.160;8.202;2023-09-08T05:35:09;17.45;;;10.50;;
41059;SDS011;26811;53.160;8.202;2023-09-08T05:40:10;16.70;;;10.65;;
41059;SDS011;26811;53.160;8.202;2023-09-08T05:45:10;21.00;;;9.80;;
41059;SDS011;26811;53.160;8.202;2023-09-08T05:50:11;14.77;;;10.60;;
41059;SDS011;26811;53.160;8.202;2023-09-08T05:55:12;16.85;;;11.15;;
41059;SDS011;26811;53.160;8.202;2023-09-08T06:00:12;15.35;;;10.75;;
41059;SDS011;26811;53.160;8.202;2023-09-08T06:05:13;15.80;;;10.60;;
41059;SDS011;26811;53.160;8.202;2023-09-08T06:10:13;13.23;;;10.35;;
41059;SDS011;26811;53.160;8.202;2023-09-08T06:15:14;14.32;;;10.57;;
41059;SDS011;26811;53.160;8.202;2023-09-08T06:20:18;16.10;;;11.05;;
41059;SDS011;26811;53.160;8.202;2023-09-08T06:25:24;18.17;;;11.00;;
41059;SDS011;26811;53.160;8.202;2023-09-08T06:30:25;16.38;;;10.35;;
41059;SDS011;26811;53.160;8.202;2023-09-08T06:35:29;16.95;;;11.10;;
41059;SDS011;26811;53.160;8.202;2023-09-08T06:40:30;13.20;;;10.63;;
41059;SDS011;26811;53.160;8.202;2023-09-08T06:45:37;17.10;;;10.50;;
41059;SDS011;26811;53.160;8.202;2023-09-08T06:50:41;19.38;;;10.60;;
41059;SDS011;26811;53.160;8.202;2023-09-08T06:55:42;14.63;;;10.52;;
41059;SDS011;26811;53.160;8.202;2023-09-08T07:00:50;14.65;;;10.10;;
41059;SDS011;26811;53.160;8.202;2023-09-08T07:11:49;15.95;;;9.50;;
41059;SDS011;26811;53.160;8.202;2023-09-08T07:17:02;14.50;;;9.50;;
41059;SDS011;26811;53.160;8.202;2023-09-08T07:22:03;11.85;;;9.07;;
41059;SDS011;26811;53.160;8.202;2023-09-08T07:27:17;18.08;;;9.27;;
41059;SDS011;26811;53.160;8.202;2023-09-08T07:32:20;21.95;;;8.60;;
41059;SDS011;26811;53.160;8.202;2023-09-08T07:37:27;12.85;;;8.38;;
41059;SDS011;26811;53.160;8.202;2023-09-08T07:42:31;12.30;;;7.80;;
41059;SDS011;26811;53.160;8.202;2023-09-08T07:47:35;16.30;;;8.43;;
41059;SDS011;26811;53.160;8.202;2023-09-08T07:52:38;11.98;;;7.65;;
41059;SDS011;26811;53.160;8.202;2023-09-08T07:57:41;12.65;;;8.20;;
41059;SDS011;26811;53.160;8.202;2023-09-08T08:02:46;13.50;;;7.88;;
41059;SDS011;26811;53.160;8.202;2023-09-08T08:08:09;15.32;;;7.57;;
41059;SDS011;26811;53.160;8.202;2023-09-08T08:13:18;15.85;;;7.70;;
41059;SDS011;26811;53.160;8.202;2023-09-08T08:18:18;12.15;;;7.75;;
41059;SDS011;26811;53.160;8.202;2023-09-08T08:23:19;10.93;;;7.72;;
41059;SDS011;26811;53.160;8.202;2023-09-08T08:28:20;10.37;;;8.07;;
41059;SDS011;26811;53.160;8.202;2023-09-08T08:33:21;8.97;;;7.33;;
41059;SDS011;26811;53.160;8.202;2023-09-08T08:38:22;12.27;;;8.17;;
41059;SDS011;26811;53.160;8.202;2023-09-08T08:43:22;10.70;;;7.40;;
41059;SDS011;26811;53.160;8.202;2023-09-08T08:48:27;8.30;;;7.10;;
41059;SDS011;26811;53.160;8.202;2023-09-08T08:53:30;14.80;;;6.68;;
41059;SDS011;26811;53.160;8.202;2023-09-08T08:58:32;11.63;;;6.63;;
41059;SDS011;26811;53.160;8.202;2023-09-08T09:03:32;10.30;;;6.13;;
41059;SDS011;26811;53.160;8.202;2023-09-08T09:08:40;10.40;;;7.53;;
41059;SDS011;26811;53.160;8.202;2023-09-08T09:13:43;9.73;;;7.30;;
41059;SDS011;26811;53.160;8.202;2023-09-08T09:24:29;9.00;;;6.97;;
41059;SDS011;26811;53.160;8.202;2023-09-08T09:29:44;10.77;;;6.78;;
41059;SDS011;26811;53.160;8.202;2023-09-08T09:34:51;10.80;;;6.65;;
41059;SDS011;26811;53.160;8.202;2023-09-08T09:39:53;7.97;;;5.90;;
41059;SDS011;26811;53.160;8.202;2023-09-08T09:44:54;10.48;;;5.82;;
41059;SDS011;26811;53.160;8.202;2023-09-08T09:49:55;11.70;;;6.33;;
41059;SDS011;26811;53.160;8.202;2023-09-08T09:54:58;8.93;;;5.90;;
41059;SDS011;26811;53.160;8.202;2023-09-08T10:00:02;11.57;;;6.40;;
41059;SDS011;26811;53.160;8.202;2023-09-08T10:05:10;11.18;;;5.97;;
41059;SDS011;26811;53.160;8.202;2023-09-08T10:10:12;13.48;;;6.50;;
41059;SDS011;26811;53.160;8.202;2023-09-08T10:15:13;11.43;;;6.65;;
41059;SDS011;26811;53.160;8.202;2023-09-08T10:20:19;7.90;;;5.60;;
41059;SDS011;26811;53.160;8.202;2023-09-08T10:25:24;6.95;;;5.80;;
41059;SDS011;26811;53.160;8.202;2023-09-08T10:30:33;10.77;;;6.50;;
41059;SDS011;26811;53.160;8.202;2023-09-08T10:40:36;10.73;;;6.37;;
41059;SDS011;26811;53.160;8.202;2023-09-08T10:45:37;13.25;;;5.40;;
41059;SDS011;26811;53.160;8.202;2023-09-08T10:50:39;10.55;;;5.72;;
41059;SDS011;26811;53.160;8.202;2023-09-08T10:55:47;11.75;;;5.95;;
41059;SDS011;26811;53.160;8.202;2023-09-08T11:00:53;9.75;;;5.53;;
41059;SDS011;26811;53.160;8.202;2023-09-08T11:05:59;10.68;;;5.70;;
41059;SDS011;26811;53.160;8.202;2023-09-08T11:11:00;9.98;;;5.47;;
41059;SDS011;26811;53.160;8.202;2023-09-08T11:21:04;7.28;;;4.65;;
41059;SDS011;26811;53.160;8.202;2023-09-08T11:26:08;5.78;;;5.07;;
41059;SDS011;26811;53.160;8.202;2023-09-08T11:31:11;11.02;;;4.82;;
41059;SDS011;26811;53.160;8.202;2023-09-08T11:36:12;9.50;;;4.90;;
41059;SDS011;26811;53.160;8.202;2023-09-08T11:41:16;6.85;;;5.03;;
41059;SDS011;26811;53.160;8.202;2023-09-08T11:46:17;8.13;;;4.47;;
41059;SDS011;26811;53.160;8.202;2023-09-08T11:51:22;7.88;;;4.38;;
41059;SDS011;26811;53.160;8.202;2023-09-08T11:56:23;7.20;;;4.50;;
41059;SDS011;26811;53.160;8.202;2023-09-08T12:01:24;9.38;;;4.30;;
41059;SDS011;26811;53.160;8.202;2023-09-08T12:06:25;7.53;;;4.15;;
41059;SDS011;26811;53.160;8.202;2023-09-08T12:11:31;6.95;;;4.30;;
41059;SDS011;26811;53.160;8.202;2023-09-08T12:16:34;6.18;;;4.47;;
41059;SDS011;26811;53.160;8.202;2023-09-08T12:26:54;5.05;;;4.25;;
41059;SDS011;26811;53.160;8.202;2023-09-08T12:36:55;7.00;;;3.90;;
41059;SDS011;26811;53.160;8.202;2023-09-08T12:46:56;5.57;;;4.10;;
41059;SDS011;26811;53.160;8.202;2023-09-08T12:51:59;4.50;;;3.70;;
41059;SDS011;26811;53.160;8.202;2023-09-08T13:02:04;5.38;;;3.70;;
41059;SDS011;26811;53.160;8.202;2023-09-08T13:12:05;4.73;;;4.10;;
41059;SDS011;26811;53.160;8.202;2023-09-08T13:17:06;6.22;;;3.75;;
41059;SDS011;26811;53.160;8.202;2023-09-08T13:27:07;8.80;;;4.03;;
41059;SDS011;26811;53.160;8.202;2023-09-08T13:37:14;5.67;;;3.70;;
41059;SDS011;26811;53.160;8.202;2023-09-08T13:42:17;4.38;;;3.63;;
41059;SDS011;26811;53.160;8.202;2023-09-08T13:52:18;7.63;;;3.80;;
41059;SDS011;26811;53.160;8.202;2023-09-08T14:02:28;4.68;;;3.65;;
41059;SDS011;26811;53.160;8.202;2023-09-08T14:07:29;5.63;;;3.78;;
41059;SDS011;26811;53.160;8.202;2023-09-08T14:17:33;5.57;;;3.60;;
41059;SDS011;26811;53.160;8.202;2023-09-08T14:22:33;7.82;;;3.60;;
41059;SDS011;26811;53.160;8.202;2023-09-08T14:32:36;7.57;;;4.00;;
41059;SDS011;26811;53.160;8.202;2023-09-08T14:42:37;6.93;;;4.17;;
41059;SDS011;26811;53.160;8.202;2023-09-08T14:52:45;7.95;;;3.95;;
41059;SDS011;26811;53.160;8.202;2023-09-08T15:02:46;7.77;;;3.97;;
41059;SDS011;26811;53.160;8.202;2023-09-08T15:12:48;5.83;;;3.90;;
41059;SDS011;26811;53.160;8.202;2023-09-08T15:22:57;6.00;;;4.43;;
41059;SDS011;26811;53.160;8.202;2023-09-08T15:27:58;7.15;;;4.32;;
41059;SDS011;26811;53.160;8.202;2023-09-08T15:38:04;9.30;;;3.75;;
41059;SDS011;26811;53.160;8.202;2023-09-08T15:48:05;5.07;;;3.60;;
41059;SDS011;26811;53.160;8.202;2023-09-08T15:58:06;5.07;;;3.80;;
41059;SDS011;26811;53.160;8.202;2023-09-08T16:03:09;7.45;;;3.97;;
41059;SDS011;26811;53.160;8.202;2023-09-08T16:08:10;5.00;;;4.13;;
41059;SDS011;26811;53.160;8.202;2023-09-08T16:13:11;4.47;;;4.07;;
41059;SDS011;26811;53.160;8.202;2023-09-08T16:18:12;5.60;;;4.07;;
41059;SDS011;26811;53.160;8.202;2023-09-08T16:23:12;5.17;;;3.90;;
41059;SDS011;26811;53.160;8.202;2023-09-08T16:28:13;7.47;;;4.10;;
41059;SDS011;26811;53.160;8.202;2023-09-08T16:33:18;9.98;;;4.00;;
41059;SDS011;26811;53.160;8.202;2023-09-08T16:38:19;5.63;;;3.93;;
41059;SDS011;26811;53.160;8.202;2023-09-08T16:43:19;6.53;;;4.00;;
41059;SDS011;26811;53.160;8.202;2023-09-08T16:48:20;9.33;;;4.30;;
41059;SDS011;26811;53.160;8.202;2023-09-08T16:53:21;7.57;;;4.97;;
41059;SDS011;26811;53.160;8.202;2023-09-08T16:58:24;11.95;;;5.25;;
41059;SDS011;26811;53.160;8.202;2023-09-08T17:03:28;12.37;;;5.37;;
41059;SDS011;26811;53.160;8.202;2023-09-08T17:08:28;6.05;;;4.50;;
41059;SDS011;26811;53.160;8.202;2023-09-08T17:13:29;7.27;;;4.27;;
41059;SDS011;26811;53.160;8.202;2023-09-08T17:18:30;7.90;;;4.97;;
41059;SDS011;26811;53.160;8.202;2023-09-08T17:23:30;7.00;;;4.70;;
41059;SDS011;26811;53.160;8.202;2023-09-08T17:28:31;8.07;;;4.60;;
41059;SDS011;26811;53.160;8.202;2023-09-08T17:33:32;7.83;;;5.27;;
41059;SDS011;26811;53.160;8.202;2023-09-08T17:43:33;13.15;;;6.20;;
41059;SDS011;26811;53.160;8.202;2023-09-08T17:48:34;9.27;;;6.10;;
41059;SDS011;26811;53.160;8.202;2023-09-08T17:53:34;9.47;;;5.90;;
41059;SDS011;26811;53.160;8.202;2023-09-08T17:58:36;8.65;;;6.05;;
41059;SDS011;26811;53.160;8.202;2023-09-08T18:03:36;9.87;;;6.53;;
41059;SDS011;26811;53.160;8.202;2023-09-08T18:08:37;7.67;;;5.73;;
41059;SDS011;26811;53.160;8.202;2023-09-08T18:13:45;9.02;;;5.75;;
41059;SDS011;26811;53.160;8.202;2023-09-08T18:18:49;10.87;;;6.53;;
41059;SDS011;26811;53.160;8.202;2023-09-08T18:23:49;9.63;;;7.55;;
41059;SDS011;26811;53.160;8.202;2023-09-08T18:28:51;12.48;;;8.13;;
41059;SDS011;26811;53.160;8.202;2023-09-08T18:33:51;10.53;;;7.53;;
41059;SDS011;26811;53.160;8.202;2023-09-08T18:38:52;13.77;;;7.45;;
41059;SDS011;26811;53.160;8.202;2023-09-08T18:43:52;11.30;;;7.47;;
41059;SDS011;26811;53.160;8.202;2023-09-08T18:48:53;13.37;;;8.10;;
41059;SDS011;26811;53.160;8.202;2023-09-08T18:53:54;19.30;;;8.23;;
41059;SDS011;26811;53.160;8.202;2023-09-08T18:58:55;12.75;;;7.88;;
41059;SDS011;26811;53.160;8.202;2023-09-08T19:03:55;19.05;;;8.50;;
41059;SDS011;26811;53.160;8.202;2023-09-08T19:08:56;11.38;;;8.70;;
41059;SDS011;26811;53.160;8.202;2023-09-08T19:13:56;10.70;;;8.73;;
41059;SDS011;26811;53.160;8.202;2023-09-08T19:18:57;12.63;;;8.93;;
41059;SDS011;26811;53.160;8.202;2023-09-08T19:23:58;14.93;;;9.02;;
41059;SDS011;26811;53.160;8.202;2023-09-08T19:29:02;12.63;;;9.95;;
41059;SDS011;26811;53.160;8.202;2023-09-08T19:34:03;16.20;;;8.85;;
41059;SDS011;26811;53.160;8.202;2023-09-08T19:39:03;16.08;;;9.85;;
41059;SDS011;26811;53.160;8.202;2023-09-08T19:44:04;17.92;;;10.60;;
41059;SDS011;26811;53.160;8.202;2023-09-08T19:49:04;14.65;;;10.52;;
41059;SDS011;26811;53.160;8.202;2023-09-08T19:54:05;17.05;;;11.32;;
41059;SDS011;26811;53.160;8.202;2023-09-08T19:59:06;14.00;;;11.02;;
41059;SDS011;26811;53.160;8.202;2023-09-08T20:04:06;14.70;;;11.10;;
41059;SDS011;26811;53.160;8.202;2023-09-08T20:09:07;15.02;;;10.75;;
41059;SDS011;26811;53.160;8.202;2023-09-08T20:14:11;14.82;;;10.18;;
41059;SDS011;26811;53.160;8.202;2023-09-08T20:19:12;13.85;;;10.18;;
41059;SDS011;26811;53.160;8.202;2023-09-08T20:24:13;15.00;;;9.90;;
41059;SDS011;26811;53.160;8.202;2023-09-08T20:29:14;12.83;;;10.23;;
41059;SDS011;26811;53.160;8.202;2023-09-08T20:34:14;16.65;;;10.00;;
41059;SDS011;26811;53.160;8.202;2023-09-08T20:39:16;12.75;;;9.82;;
41059;SDS011;26811;53.160;8.202;2023-09-08T20:44:17;15.55;;;9.90;;
41059;SDS011;26811;53.160;8.202;2023-09-08T20:49:17;12.90;;;8.93;;
41059;SDS011;26811;53.160;8.202;2023-09-08T20:54:18;12.15;;;9.32;;
41059;SDS011;26811;53.160;8.202;2023-09-08T20:59:18;12.63;;;9.68;;
41059;SDS011;26811;53.160;8.202;2023-09-08T21:04:19;11.82;;;8.85;;
41059;SDS011;26811;53.160;8.202;2023-09-08T21:09:19;14.00;;;9.63;;
41059;SDS011;26811;53.160;8.202;2023-09-08T21:14:20;13.85;;;9.55;;
41059;SDS011;26811;53.160;8.202;2023-09-08T21:19:21;19.52;;;9.55;;
41059;SDS011;26811;53.160;8.202;2023-09-08T21:24:21;16.42;;;9.43;;
41059;SDS011;26811;53.160;8.202;2023-09-08T21:29:22;13.18;;;9.48;;
41059;SDS011;26811;53.160;8.202;2023-09-08T21:34:22;13.02;;;9.85;;
41059;SDS011;26811;53.160;8.202;2023-09-08T21:39:23;13.82;;;9.95;;
41059;SDS011;26811;53.160;8.202;2023-09-08T21:44:24;15.73;;;10.27;;
41059;SDS011;26811;53.160;8.202;2023-09-08T21:49:24;15.63;;;10.52;;
41059;SDS011;26811;53.160;8.202;2023-09-08T21:54:25;17.92;;;9.90;;
41059;SDS011;26811;53.160;8.202;2023-09-08T21:59:25;13.75;;;9.73;;
41059;SDS011;26811;53.160;8.202;2023-09-08T22:04:26;16.55;;;10.25;;
41059;SDS011;26811;53.160;8.202;2023-09-08T22:09:26;13.38;;;9.95;;
41059;SDS011;26811;53.160;8.202;2023-09-08T22:14:27;13.15;;;10.50;;
41059;SDS011;26811;53.160;8.202;2023-09-08T22:19:30;13.55;;;10.18;;
41059;SDS011;26811;53.160;8.202;2023-09-08T22:24:31;14.50;;;10.90;;
41059;SDS011;26811;53.160;8.202;2023-09-08T22:29:31;14.65;;;11.10;;
41059;SDS011;26811;53.160;8.202;2023-09-08T22:34:32;15.57;;;11.50;;
41059;SDS011;26811;53.160;8.202;2023-09-08T22:39:33;17.63;;;12.88;;
41059;SDS011;26811;53.160;8.202;2023-09-08T22:44:33;18.90;;;12.02;;
41059;SDS011;26811;53.160;8.202;2023-09-08T22:49:35;16.37;;;11.63;;
41059;SDS011;26811;53.160;8.202;2023-09-08T22:54:55;16.10;;;12.20;;
41059;SDS011;26811;53.160;8.202;2023-09-08T22:59:55;15.70;;;11.65;;
41059;SDS011;26811;53.160;8.202;2023-09-08T23:04:56;17.67;;;12.60;;
41059;SDS011;26811;53.160;8.202;2023-09-08T23:09:56;14.98;;;11.70;;
41059;SDS011;26811;53.160;8.202;2023-09-08T23:14:57;13.70;;;12.02;;
41059;SDS011;26811;53.160;8.202;2023-09-08T23:19:57;17.17;;;11.40;;
41059;SDS011;26811;53.160;8.202;2023-09-08T23:24:58;16.15;;;11.68;;
41059;SDS011;26811;53.160;8.202;2023-09-08T23:29:59;13.38;;;11.45;;
41059;SDS011;26811;53.160;8.202;2023-09-08T23:34:59;17.73;;;11.27;;
41059;SDS011;26811;53.160;8.202;2023-09-08T23:40:00;15.40;;;11.85;;
41059;SDS011;26811;53.160;8.202;2023-09-08T23:45:01;13.65;;;11.50;;
41059;SDS011;26811;53.160;8.202;2023-09-08T23:55:05;16.38;;;10.93;;
